Terminal Aerodrome Forecast
Issued by NWS Louisville, KY

Home | Current Version | Previous Version | Text Only | Print | Product List | Glossary On
Versions: 1 2 3 4 5 6 7 8 9 10 11 12 13 14 15 16
000
FTUS43 KLMK 211722
TAFLEX
TAF
KLEX 211722Z 2118/2218 17009KT P6SM OVC250
     FM220000 15005KT P6SM OVC150
     FM220900 08006KT P6SM VCSH BKN035
     FM221200 08007KT 4SM SHRA BR BKN015=

USA.gov is the U.S. government's official web portal to all federal, state and local government web resources and services.